This is the latest recevied weather packets stored in our database for station/object DO7ZT-10. If no packets are shown the sender has not sent any weather packets the latest 10 day(s).
| Time | Temp. | Humidity | Pressure | Rain* | Wind** | Luminosity | Snow |
|---|---|---|---|---|---|---|---|
| 1787505373 | 17.22° C | 47% | 1022.8 hPa | - | - | - | - |
| 1787504473 | 17.22° C | 45% | 1022.9 hPa | - | - | - | - |
| 1787503572 | 17.22° C | 45% | 1022.9 hPa | - | - | - | - |
| 1787502672 | 17.78° C | 43% | 1022.9 hPa | - | - | - | - |
| 1787501772 | 17.78° C | 43% | 1023 hPa | - | - | - | - |
| 1787500872 | 17.22° C | 44% | 1023 hPa | - | - | - | - |
| 1787499972 | 18.33° C | 42% | 1023.1 hPa | - | - | - | - |
| 1787499072 | 17.78° C | 43% | 1023.1 hPa | - | - | - | - |
| 1787498172 | 17.78° C | 45% | 1023 hPa | - | - | - | - |
| 1787497272 | 18.33° C | 44% | 1023.1 hPa | - | - | - | - |
| 1787496374 | 18.33° C | 48% | 1023.1 hPa | - | - | - | - |
| 1787495472 | 17.78° C | 47% | 1023.2 hPa | - | - | - | - |
| 1787494572 | 17.78° C | 46% | 1023 hPa | - | - | - | - |
| 1787493672 | 17.78° C | 49% | 1023.1 hPa | - | - | - | - |
| 1787492772 | 17.78° C | 47% | 1023 hPa | - | - | - | - |
| 1787491872 | 17.78° C | 49% | 1023.1 hPa | - | - | - | - |
| 1787490971 | 17.78° C | 48% | 1023.1 hPa | - | - | - | - |
| 1787490071 | 18.89° C | 47% | 1023.1 hPa | - | - | - | - |
| 1787489171 | 17.78° C | 49% | 1023.2 hPa | - | - | - | - |
| 1787488271 | 17.78° C | 52% | 1023.2 hPa | - | - | - | - |
| 1787487371 | 17.78° C | 53% | 1023.1 hPa | - | - | - | - |
| 1787486471 | 18.33° C | 48% | 1023 hPa | - | - | - | - |
| 1787485571 | 17.78° C | 51% | 1022.9 hPa | - | - | - | - |
| 1787484671 | 16.67° C | 56% | 1023 hPa | - | - | - | - |
| 1787483771 | 17.22° C | 56% | 1023 hPa | - | - | - | - |
* Rain since midnight (hover to see other rain measurements)
** Current wind speed in m/s (hover to see current wind gust speed)